sensor_id;sensor_type;location;lat;lon;timestamp;pressure;altitude;pressure_sealevel;temperature;humidity
27144;BME280;14672;50.250;8.312;2022-11-15T00:00:55;98467.75;;;13.28;71.72
27144;BME280;14672;50.250;8.312;2022-11-15T00:03:26;98465.56;;;13.23;71.45
27144;BME280;14672;50.250;8.312;2022-11-15T00:05:53;98455.53;;;13.27;71.56
27144;BME280;14672;50.250;8.312;2022-11-15T00:08:19;98455.16;;;13.34;71.54
27144;BME280;14672;50.250;8.312;2022-11-15T00:10:59;98452.63;;;13.36;71.03
27144;BME280;14672;50.250;8.312;2022-11-15T00:13:26;98451.44;;;13.43;71.10
27144;BME280;14672;50.250;8.312;2022-11-15T00:15:52;98434.41;;;13.34;71.30
27144;BME280;14672;50.250;8.312;2022-11-15T00:18:18;98444.31;;;13.24;71.38
27144;BME280;14672;50.250;8.312;2022-11-15T00:20:45;98441.78;;;13.26;71.35
27144;BME280;14672;50.250;8.312;2022-11-15T00:23:10;98437.41;;;13.15;71.49
27144;BME280;14672;50.250;8.312;2022-11-15T00:25:36;98435.16;;;13.20;71.62
27144;BME280;14672;50.250;8.312;2022-11-15T00:28:03;98438.50;;;13.18;71.63
27144;BME280;14672;50.250;8.312;2022-11-15T00:30:29;98441.19;;;13.22;71.71
27144;BME280;14672;50.250;8.312;2022-11-15T00:32:55;98442.97;;;13.10;71.94
27144;BME280;14672;50.250;8.312;2022-11-15T00:35:21;98431.88;;;13.12;72.01
27144;BME280;14672;50.250;8.312;2022-11-15T00:37:48;98438.81;;;13.20;71.48
27144;BME280;14672;50.250;8.312;2022-11-15T00:40:15;98437.16;;;13.04;72.31
27144;BME280;14672;50.250;8.312;2022-11-15T00:42:41;98434.91;;;13.08;71.97
27144;BME280;14672;50.250;8.312;2022-11-15T00:45:08;98429.59;;;13.25;71.65
27144;BME280;14672;50.250;8.312;2022-11-15T00:47:34;98433.78;;;13.30;71.22
27144;BME280;14672;50.250;8.312;2022-11-15T00:50:00;98429.06;;;13.27;71.12
27144;BME280;14672;50.250;8.312;2022-11-15T00:52:25;98437.44;;;13.30;70.96
27144;BME280;14672;50.250;8.312;2022-11-15T00:54:51;98422.03;;;13.37;70.71
27144;BME280;14672;50.250;8.312;2022-11-15T00:57:17;98432.78;;;13.18;71.20
27144;BME280;14672;50.250;8.312;2022-11-15T00:59:43;98409.50;;;13.34;70.35
27144;BME280;14672;50.250;8.312;2022-11-15T01:02:09;98405.78;;;13.43;69.94
27144;BME280;14672;50.250;8.312;2022-11-15T01:04:34;98420.72;;;13.38;70.27
27144;BME280;14672;50.250;8.312;2022-11-15T01:07:00;98409.03;;;13.36;70.04
27144;BME280;14672;50.250;8.312;2022-11-15T01:09:26;98416.59;;;13.39;70.19
27144;BME280;14672;50.250;8.312;2022-11-15T01:11:52;98411.50;;;13.43;70.09
27144;BME280;14672;50.250;8.312;2022-11-15T01:14:18;98407.66;;;13.46;69.92
27144;BME280;14672;50.250;8.312;2022-11-15T01:16:44;98404.13;;;13.51;69.71
27144;BME280;14672;50.250;8.312;2022-11-15T01:19:09;98398.75;;;13.53;69.74
27144;BME280;14672;50.250;8.312;2022-11-15T01:21:35;98403.66;;;13.52;69.56
27144;BME280;14672;50.250;8.312;2022-11-15T01:24:01;98397.16;;;13.52;69.53
27144;BME280;14672;50.250;8.312;2022-11-15T01:26:27;98397.22;;;13.43;70.05
27144;BME280;14672;50.250;8.312;2022-11-15T01:28:53;98388.06;;;13.39;70.23
27144;BME280;14672;50.250;8.312;2022-11-15T01:31:21;98387.69;;;13.46;69.92
27144;BME280;14672;50.250;8.312;2022-11-15T01:33:48;98395.97;;;13.44;69.85
27144;BME280;14672;50.250;8.312;2022-11-15T01:36:20;98394.78;;;13.50;69.70
27144;BME280;14672;50.250;8.312;2022-11-15T01:38:57;98400.69;;;13.47;69.80
27144;BME280;14672;50.250;8.312;2022-11-15T01:41:31;98396.84;;;13.50;69.72
27144;BME280;14672;50.250;8.312;2022-11-15T01:47:31;98376.97;;;13.55;69.50
27144;BME280;14672;50.250;8.312;2022-11-15T01:50:10;98369.59;;;13.49;69.95
27144;BME280;14672;50.250;8.312;2022-11-15T01:52:40;98369.28;;;13.47;70.07
27144;BME280;14672;50.250;8.312;2022-11-15T01:55:24;98362.59;;;13.35;70.68
27144;BME280;14672;50.250;8.312;2022-11-15T01:57:55;98371.47;;;13.52;69.84
27144;BME280;14672;50.250;8.312;2022-11-15T02:00:22;98372.06;;;13.56;69.82
27144;BME280;14672;50.250;8.312;2022-11-15T02:02:48;98367.03;;;13.51;69.99
27144;BME280;14672;50.250;8.312;2022-11-15T02:05:14;98369.59;;;13.49;69.94
27144;BME280;14672;50.250;8.312;2022-11-15T02:07:39;98363.91;;;13.49;70.15
27144;BME280;14672;50.250;8.312;2022-11-15T02:10:13;98353.88;;;13.53;70.45
27144;BME280;14672;50.250;8.312;2022-11-15T02:12:39;98356.81;;;13.59;70.00
27144;BME280;14672;50.250;8.312;2022-11-15T02:15:08;98350.50;;;13.55;70.14
27144;BME280;14672;50.250;8.312;2022-11-15T02:18:24;98353.06;;;13.53;70.13
27144;BME280;14672;50.250;8.312;2022-11-15T02:29:46;98333.38;;;13.40;70.67
27144;BME280;14672;50.250;8.312;2022-11-15T02:36:00;98327.38;;;13.38;70.95
27144;BME280;14672;50.250;8.312;2022-11-15T02:41:48;98330.63;;;13.31;71.31
27144;BME280;14672;50.250;8.312;2022-11-15T02:44:30;98322.84;;;13.32;71.27
27144;BME280;14672;50.250;8.312;2022-11-15T02:47:02;98329.44;;;13.38;71.00
27144;BME280;14672;50.250;8.312;2022-11-15T02:49:50;98341.94;;;13.26;71.91
27144;BME280;14672;50.250;8.312;2022-11-15T02:52:20;98333.00;;;13.33;71.01
27144;BME280;14672;50.250;8.312;2022-11-15T03:00:16;98331.00;;;13.39;71.92
27144;BME280;14672;50.250;8.312;2022-11-15T03:08:32;98324.31;;;13.42;71.61
27144;BME280;14672;50.250;8.312;2022-11-15T03:11:19;98333.59;;;13.37;72.31
27144;BME280;14672;50.250;8.312;2022-11-15T03:17:12;98325.91;;;13.43;72.15
27144;BME280;14672;50.250;8.312;2022-11-15T03:19:46;98331.59;;;13.43;71.85
27144;BME280;14672;50.250;8.312;2022-11-15T03:22:21;98332.50;;;13.49;71.51
27144;BME280;14672;50.250;8.312;2022-11-15T03:24:55;98326.50;;;13.47;71.17
27144;BME280;14672;50.250;8.312;2022-11-15T03:27:25;98333.19;;;13.44;71.54
27144;BME280;14672;50.250;8.312;2022-11-15T03:29:59;98326.09;;;13.54;71.23
27144;BME280;14672;50.250;8.312;2022-11-15T03:32:29;98337.31;;;13.43;71.40
27144;BME280;14672;50.250;8.312;2022-11-15T03:35:08;98335.94;;;13.53;71.06
27144;BME280;14672;50.250;8.312;2022-11-15T03:37:45;98332.59;;;13.54;71.09
27144;BME280;14672;50.250;8.312;2022-11-15T03:40:15;98342.94;;;13.52;70.98
27144;BME280;14672;50.250;8.312;2022-11-15T03:45:59;98328.19;;;13.53;70.92
27144;BME280;14672;50.250;8.312;2022-11-15T03:48:33;98333.38;;;13.55;71.17
27144;BME280;14672;50.250;8.312;2022-11-15T03:51:01;98325.81;;;13.52;70.42
27144;BME280;14672;50.250;8.312;2022-11-15T03:53:28;98335.44;;;13.40;70.79
27144;BME280;14672;50.250;8.312;2022-11-15T03:55:54;98333.97;;;13.44;70.64
27144;BME280;14672;50.250;8.312;2022-11-15T03:58:20;98329.94;;;13.51;70.30
27144;BME280;14672;50.250;8.312;2022-11-15T04:00:45;98337.91;;;13.47;70.22
27144;BME280;14672;50.250;8.312;2022-11-15T04:03:11;98318.84;;;13.53;70.31
27144;BME280;14672;50.250;8.312;2022-11-15T04:05:37;98329.34;;;13.32;70.56
27144;BME280;14672;50.250;8.312;2022-11-15T04:08:03;98330.81;;;13.42;70.40
27144;BME280;14672;50.250;8.312;2022-11-15T04:10:28;98338.69;;;13.47;69.83
27144;BME280;14672;50.250;8.312;2022-11-15T04:12:54;98338.50;;;13.36;70.33
27144;BME280;14672;50.250;8.312;2022-11-15T04:15:22;98345.59;;;13.41;70.03
27144;BME280;14672;50.250;8.312;2022-11-15T04:17:56;98336.63;;;13.48;69.92
27144;BME280;14672;50.250;8.312;2022-11-15T04:20:24;98336.25;;;13.55;69.25
27144;BME280;14672;50.250;8.312;2022-11-15T04:23:22;98331.03;;;13.53;69.36
27144;BME280;14672;50.250;8.312;2022-11-15T04:26:16;98328.66;;;13.52;69.47
27144;BME280;14672;50.250;8.312;2022-11-15T04:28:43;98335.66;;;13.51;69.02
27144;BME280;14672;50.250;8.312;2022-11-15T04:31:28;98332.09;;;13.56;68.91
27144;BME280;14672;50.250;8.312;2022-11-15T04:33:54;98333.09;;;13.53;69.18
27144;BME280;14672;50.250;8.312;2022-11-15T04:36:21;98334.66;;;13.54;68.80
27144;BME280;14672;50.250;8.312;2022-11-15T04:39:05;98329.06;;;13.45;69.28
27144;BME280;14672;50.250;8.312;2022-11-15T04:41:31;98318.59;;;13.42;69.31
27144;BME280;14672;50.250;8.312;2022-11-15T04:43:57;98327.97;;;13.42;69.24
27144;BME280;14672;50.250;8.312;2022-11-15T04:46:23;98323.06;;;13.43;69.38
27144;BME280;14672;50.250;8.312;2022-11-15T04:48:51;98317.84;;;13.41;69.25
27144;BME280;14672;50.250;8.312;2022-11-15T04:51:17;98318.94;;;13.44;69.02
27144;BME280;14672;50.250;8.312;2022-11-15T04:53:43;98316.28;;;13.40;69.39
27144;BME280;14672;50.250;8.312;2022-11-15T04:56:09;98308.19;;;13.39;69.04
27144;BME280;14672;50.250;8.312;2022-11-15T04:58:35;98310.16;;;13.33;69.30
27144;BME280;14672;50.250;8.312;2022-11-15T05:01:14;98308.09;;;13.33;69.72
27144;BME280;14672;50.250;8.312;2022-11-15T05:03:44;98299.94;;;13.41;69.23
27144;BME280;14672;50.250;8.312;2022-11-15T05:06:29;98285.69;;;13.41;69.05
27144;BME280;14672;50.250;8.312;2022-11-15T05:08:55;98292.94;;;13.42;69.08
27144;BME280;14672;50.250;8.312;2022-11-15T05:11:21;98286.94;;;13.40;69.20
27144;BME280;14672;50.250;8.312;2022-11-15T05:13:48;98285.09;;;13.37;69.15
27144;BME280;14672;50.250;8.312;2022-11-15T05:16:14;98288.72;;;13.37;69.04
27144;BME280;14672;50.250;8.312;2022-11-15T05:18:40;98282.91;;;13.32;68.99
27144;BME280;14672;50.250;8.312;2022-11-15T05:21:12;98286.16;;;13.25;69.35
27144;BME280;14672;50.250;8.312;2022-11-15T05:23:38;98286.97;;;13.25;68.95
27144;BME280;14672;50.250;8.312;2022-11-15T05:26:05;98277.09;;;13.26;68.93
27144;BME280;14672;50.250;8.312;2022-11-15T05:28:32;98268.53;;;13.26;68.82
27144;BME280;14672;50.250;8.312;2022-11-15T05:31:11;98264.94;;;13.26;69.37
27144;BME280;14672;50.250;8.312;2022-11-15T05:33:39;98265.69;;;13.26;69.00
27144;BME280;14672;50.250;8.312;2022-11-15T05:36:31;98267.19;;;13.22;69.31
27144;BME280;14672;50.250;8.312;2022-11-15T05:38:59;98268.66;;;13.17;68.99
27144;BME280;14672;50.250;8.312;2022-11-15T05:41:32;98276.63;;;13.13;69.41
27144;BME280;14672;50.250;8.312;2022-11-15T05:44:01;98275.22;;;13.08;68.66
27144;BME280;14672;50.250;8.312;2022-11-15T05:46:28;98269.50;;;12.94;68.58
27144;BME280;14672;50.250;8.312;2022-11-15T05:48:55;98272.75;;;13.01;68.33
27144;BME280;14672;50.250;8.312;2022-11-15T05:51:22;98273.63;;;12.93;68.75
27144;BME280;14672;50.250;8.312;2022-11-15T05:53:49;98267.41;;;12.94;68.27
27144;BME280;14672;50.250;8.312;2022-11-15T05:56:16;98276.66;;;12.89;69.03
27144;BME280;14672;50.250;8.312;2022-11-15T05:58:43;98278.53;;;12.92;68.55
27144;BME280;14672;50.250;8.312;2022-11-15T06:01:09;98274.00;;;12.86;68.74
27144;BME280;14672;50.250;8.312;2022-11-15T06:03:35;98283.22;;;12.81;67.89
27144;BME280;14672;50.250;8.312;2022-11-15T06:06:00;98279.97;;;12.73;68.34
27144;BME280;14672;50.250;8.312;2022-11-15T06:08:27;98282.47;;;12.56;67.79
27144;BME280;14672;50.250;8.312;2022-11-15T06:10:52;98289.56;;;12.61;68.25
27144;BME280;14672;50.250;8.312;2022-11-15T06:13:18;98284.84;;;12.58;68.43
27144;BME280;14672;50.250;8.312;2022-11-15T06:15:44;98286.59;;;12.55;68.53
27144;BME280;14672;50.250;8.312;2022-11-15T06:18:10;98287.38;;;12.56;68.46
27144;BME280;14672;50.250;8.312;2022-11-15T06:20:35;98293.56;;;12.54;68.88
27144;BME280;14672;50.250;8.312;2022-11-15T06:23:04;98290.09;;;12.50;68.73
27144;BME280;14672;50.250;8.312;2022-11-15T06:25:30;98285.19;;;12.51;69.21
27144;BME280;14672;50.250;8.312;2022-11-15T06:27:57;98277.38;;;12.60;69.96
27144;BME280;14672;50.250;8.312;2022-11-15T06:30:25;98278.16;;;12.61;69.70
27144;BME280;14672;50.250;8.312;2022-11-15T06:32:58;98284.25;;;12.54;69.68
27144;BME280;14672;50.250;8.312;2022-11-15T06:35:24;98277.97;;;12.64;70.45
27144;BME280;14672;50.250;8.312;2022-11-15T06:37:49;98278.38;;;12.72;71.10
27144;BME280;14672;50.250;8.312;2022-11-15T06:40:15;98283.22;;;12.81;71.64
27144;BME280;14672;50.250;8.312;2022-11-15T06:42:41;98274.00;;;12.86;71.23
27144;BME280;14672;50.250;8.312;2022-11-15T06:45:07;98279.78;;;12.91;71.22
27144;BME280;14672;50.250;8.312;2022-11-15T06:47:33;98273.03;;;12.89;71.03
27144;BME280;14672;50.250;8.312;2022-11-15T06:49:59;98290.41;;;12.91;71.48
27144;BME280;14672;50.250;8.312;2022-11-15T06:52:24;98296.22;;;12.82;71.97
27144;BME280;14672;50.250;8.312;2022-11-15T06:54:50;98298.16;;;12.90;71.58
27144;BME280;14672;50.250;8.312;2022-11-15T06:57:16;98291.78;;;12.95;71.32
27144;BME280;14672;50.250;8.312;2022-11-15T06:59:42;98299.56;;;12.95;71.30
27144;BME280;14672;50.250;8.312;2022-11-15T07:02:12;98299.75;;;12.91;71.78
27144;BME280;14672;50.250;8.312;2022-11-15T07:04:38;98301.94;;;12.96;71.48
27144;BME280;14672;50.250;8.312;2022-11-15T07:07:04;98296.81;;;13.00;71.38
27144;BME280;14672;50.250;8.312;2022-11-15T07:09:30;98303.59;;;13.03;71.30
27144;BME280;14672;50.250;8.312;2022-11-15T07:11:56;98293.59;;;13.07;70.87
27144;BME280;14672;50.250;8.312;2022-11-15T07:14:21;98298.22;;;13.05;71.54
27144;BME280;14672;50.250;8.312;2022-11-15T07:16:47;98290.56;;;13.11;71.53
27144;BME280;14672;50.250;8.312;2022-11-15T07:19:13;98301.31;;;13.16;71.23
27144;BME280;14672;50.250;8.312;2022-11-15T07:21:38;98288.13;;;13.18;71.30
27144;BME280;14672;50.250;8.312;2022-11-15T07:24:05;98289.22;;;13.21;71.22
27144;BME280;14672;50.250;8.312;2022-11-15T07:26:30;98295.28;;;13.14;71.99
27144;BME280;14672;50.250;8.312;2022-11-15T07:28:56;98296.78;;;13.24;71.53
27144;BME280;14672;50.250;8.312;2022-11-15T07:31:22;98296.88;;;13.30;71.54
27144;BME280;14672;50.250;8.312;2022-11-15T07:33:48;98298.44;;;13.31;71.53
27144;BME280;14672;50.250;8.312;2022-11-15T07:36:13;98302.88;;;13.32;71.54
27144;BME280;14672;50.250;8.312;2022-11-15T07:38:39;98296.50;;;13.37;71.33
27144;BME280;14672;50.250;8.312;2022-11-15T07:41:06;98298.34;;;13.40;71.25
27144;BME280;14672;50.250;8.312;2022-11-15T07:43:32;98298.34;;;13.40;71.56
27144;BME280;14672;50.250;8.312;2022-11-15T07:46:06;98305.25;;;13.48;71.06
27144;BME280;14672;50.250;8.312;2022-11-15T07:48:35;98305.63;;;13.55;71.14
27144;BME280;14672;50.250;8.312;2022-11-15T07:51:02;98300.50;;;13.59;70.94
27144;BME280;14672;50.250;8.312;2022-11-15T07:53:28;98302.16;;;13.66;70.98
27144;BME280;14672;50.250;8.312;2022-11-15T07:55:54;98294.13;;;13.64;71.24
27144;BME280;14672;50.250;8.312;2022-11-15T07:58:19;98292.91;;;13.71;70.94
27144;BME280;14672;50.250;8.312;2022-11-15T08:00:45;98296.16;;;13.79;70.89
27144;BME280;14672;50.250;8.312;2022-11-15T08:03:14;98297.16;;;13.76;71.08
27144;BME280;14672;50.250;8.312;2022-11-15T08:05:42;98304.81;;;13.70;71.25
27144;BME280;14672;50.250;8.312;2022-11-15T08:08:10;98303.66;;;13.76;71.56
27144;BME280;14672;50.250;8.312;2022-11-15T08:10:37;98299.31;;;13.81;71.03
27144;BME280;14672;50.250;8.312;2022-11-15T08:13:06;98295.94;;;13.82;71.24
27144;BME280;14672;50.250;8.312;2022-11-15T08:15:34;98298.31;;;13.84;71.38
27144;BME280;14672;50.250;8.312;2022-11-15T08:18:09;98298.22;;;13.78;71.57
27144;BME280;14672;50.250;8.312;2022-11-15T08:20:35;98294.97;;;13.85;71.74
27144;BME280;14672;50.250;8.312;2022-11-15T08:23:03;98291.72;;;13.92;71.11
27144;BME280;14672;50.250;8.312;2022-11-15T08:25:32;98298.53;;;13.80;72.32
27144;BME280;14672;50.250;8.312;2022-11-15T08:28:01;98289.44;;;13.96;71.48
27144;BME280;14672;50.250;8.312;2022-11-15T08:30:27;98288.84;;;13.92;71.66
27144;BME280;14672;50.250;8.312;2022-11-15T08:32:56;98288.03;;;14.06;71.54
27144;BME280;14672;50.250;8.312;2022-11-15T08:35:23;98280.72;;;14.05;71.01
27144;BME280;14672;50.250;8.312;2022-11-15T08:37:49;98275.81;;;14.06;71.37
27144;BME280;14672;50.250;8.312;2022-11-15T08:40:16;98280.16;;;14.01;71.49
27144;BME280;14672;50.250;8.312;2022-11-15T08:42:47;98277.97;;;14.11;71.66
27144;BME280;14672;50.250;8.312;2022-11-15T08:45:13;98269.69;;;14.13;71.15
27144;BME280;14672;50.250;8.312;2022-11-15T08:47:39;98274.41;;;14.16;71.24
27144;BME280;14672;50.250;8.312;2022-11-15T08:50:06;98276.75;;;14.18;71.21
27144;BME280;14672;50.250;8.312;2022-11-15T08:52:32;98276.47;;;14.16;71.58
27144;BME280;14672;50.250;8.312;2022-11-15T08:54:58;98282.28;;;14.21;71.60
27144;BME280;14672;50.250;8.312;2022-11-15T08:57:24;98278.31;;;14.19;71.59
27144;BME280;14672;50.250;8.312;2022-11-15T08:59:50;98287.56;;;14.28;71.46
27144;BME280;14672;50.250;8.312;2022-11-15T09:02:17;98282.75;;;14.20;72.01
27144;BME280;14672;50.250;8.312;2022-11-15T09:04:43;98286.38;;;14.35;71.95
27144;BME280;14672;50.250;8.312;2022-11-15T09:07:13;98269.22;;;14.35;71.57
27144;BME280;14672;50.250;8.312;2022-11-15T09:09:39;98278.97;;;14.43;71.28
27144;BME280;14672;50.250;8.312;2022-11-15T09:12:07;98279.03;;;14.48;71.75
27144;BME280;14672;50.250;8.312;2022-11-15T09:14:33;98268.66;;;14.51;71.54
27144;BME280;14672;50.250;8.312;2022-11-15T09:17:00;98269.72;;;14.53;71.84
27144;BME280;14672;50.250;8.312;2022-11-15T09:19:26;98261.81;;;14.63;71.66
27144;BME280;14672;50.250;8.312;2022-11-15T09:21:52;98260.34;;;14.73;71.05
27144;BME280;14672;50.250;8.312;2022-11-15T09:24:18;98264.31;;;14.76;71.22
27144;BME280;14672;50.250;8.312;2022-11-15T09:26:43;98257.34;;;14.82;70.92
27144;BME280;14672;50.250;8.312;2022-11-15T09:29:10;98255.78;;;14.81;71.11
27144;BME280;14672;50.250;8.312;2022-11-15T09:31:35;98255.34;;;14.88;70.68
27144;BME280;14672;50.250;8.312;2022-11-15T09:34:01;98252.75;;;14.90;70.46
27144;BME280;14672;50.250;8.312;2022-11-15T09:36:27;98252.75;;;14.90;70.54
27144;BME280;14672;50.250;8.312;2022-11-15T09:38:53;98254.19;;;15.00;70.10
27144;BME280;14672;50.250;8.312;2022-11-15T09:41:45;98257.47;;;14.93;70.95
27144;BME280;14672;50.250;8.312;2022-11-15T09:44:41;98253.44;;;15.05;70.72
27144;BME280;14672;50.250;8.312;2022-11-15T09:49:59;98246.72;;;15.09;70.23
27144;BME280;14672;50.250;8.312;2022-11-15T09:52:27;98253.72;;;15.08;70.02
27144;BME280;14672;50.250;8.312;2022-11-15T09:54:53;98251.66;;;15.08;70.21
27144;BME280;14672;50.250;8.312;2022-11-15T10:03:06;98242.31;;;15.13;69.87
27144;BME280;14672;50.250;8.312;2022-11-15T10:05:41;98241.59;;;15.18;69.60
27144;BME280;14672;50.250;8.312;2022-11-15T10:08:31;98242.66;;;15.21;69.02
27144;BME280;14672;50.250;8.312;2022-11-15T10:11:23;98240.66;;;15.27;68.88
27144;BME280;14672;50.250;8.312;2022-11-15T10:13:53;98238.06;;;15.29;68.65
27144;BME280;14672;50.250;8.312;2022-11-15T10:19:50;98224.28;;;15.27;69.17
27144;BME280;14672;50.250;8.312;2022-11-15T10:22:45;98236.13;;;15.46;68.78
27144;BME280;14672;50.250;8.312;2022-11-15T10:25:24;98228.97;;;15.56;68.79
27144;BME280;14672;50.250;8.312;2022-11-15T10:30:50;98231.78;;;15.50;68.41
27144;BME280;14672;50.250;8.312;2022-11-15T10:33:37;98226.25;;;15.47;68.65
27144;BME280;14672;50.250;8.312;2022-11-15T10:39:04;98210.03;;;15.64;67.98
27144;BME280;14672;50.250;8.312;2022-11-15T10:41:35;98195.84;;;15.86;67.54
27144;BME280;14672;50.250;8.312;2022-11-15T10:46:49;98186.22;;;16.32;66.32
27144;BME280;14672;50.250;8.312;2022-11-15T10:49:31;98169.50;;;16.30;66.13
27144;BME280;14672;50.250;8.312;2022-11-15T10:52:18;98167.28;;;16.57;65.21
27144;BME280;14672;50.250;8.312;2022-11-15T10:54:53;98166.28;;;16.60;65.13
27144;BME280;14672;50.250;8.312;2022-11-15T10:57:24;98153.31;;;17.31;63.98
27144;BME280;14672;50.250;8.312;2022-11-15T11:00:00;98147.84;;;17.66;62.79
27144;BME280;14672;50.250;8.312;2022-11-15T11:02:38;98140.91;;;18.14;61.47
27144;BME280;14672;50.250;8.312;2022-11-15T11:05:29;98130.53;;;17.89;60.45
27144;BME280;14672;50.250;8.312;2022-11-15T11:10:38;98115.75;;;18.31;59.71
27144;BME280;14672;50.250;8.312;2022-11-15T11:13:27;98115.44;;;18.40;59.72
27144;BME280;14672;50.250;8.312;2022-11-15T11:16:39;98104.56;;;19.09;58.87
27144;BME280;14672;50.250;8.312;2022-11-15T11:24:38;98093.38;;;20.27;54.90
27144;BME280;14672;50.250;8.312;2022-11-15T11:27:21;98091.16;;;20.39;54.29
27144;BME280;14672;50.250;8.312;2022-11-15T11:30:17;98081.59;;;21.00;53.36
27144;BME280;14672;50.250;8.312;2022-11-15T11:38:21;98098.47;;;19.48;54.69
27144;BME280;14672;50.250;8.312;2022-11-15T11:46:56;98081.59;;;19.28;55.63
27144;BME280;14672;50.250;8.312;2022-11-15T11:49:57;98092.28;;;19.03;56.74
27144;BME280;14672;50.250;8.312;2022-11-15T11:52:57;98089.69;;;19.00;56.72
27144;BME280;14672;50.250;8.312;2022-11-15T11:55:45;98084.53;;;18.93;57.05
27144;BME280;14672;50.250;8.312;2022-11-15T11:58:40;98079.94;;;18.79;57.34
27144;BME280;14672;50.250;8.312;2022-11-15T12:01:20;98080.69;;;18.79;57.75
27144;BME280;14672;50.250;8.312;2022-11-15T12:04:05;98082.56;;;18.76;57.66
27144;BME280;14672;50.250;8.312;2022-11-15T12:09:28;98076.38;;;18.15;58.20
27144;BME280;14672;50.250;8.312;2022-11-15T12:13:10;98063.78;;;18.18;58.84
27144;BME280;14672;50.250;8.312;2022-11-15T12:15:16;98062.13;;;17.81;59.88
27144;BME280;14672;50.250;8.312;2022-11-15T12:17:44;98058.50;;;17.64;59.80
27144;BME280;14672;50.250;8.312;2022-11-15T12:20:26;98058.00;;;17.71;60.13
27144;BME280;14672;50.250;8.312;2022-11-15T12:23:15;98052.78;;;17.64;60.34
27144;BME280;14672;50.250;8.312;2022-11-15T12:26:16;98043.91;;;17.46;61.12
27144;BME280;14672;50.250;8.312;2022-11-15T12:29:04;98047.59;;;17.46;61.70
27144;BME280;14672;50.250;8.312;2022-11-15T12:31:36;98043.41;;;17.47;61.53
27144;BME280;14672;50.250;8.312;2022-11-15T12:36:52;98041.88;;;17.35;61.63
27144;BME280;14672;50.250;8.312;2022-11-15T12:39:18;98035.09;;;17.27;61.99
27144;BME280;14672;50.250;8.312;2022-11-15T13:02:37;98018.19;;;16.90;62.40
27144;BME280;14672;50.250;8.312;2022-11-15T13:17:51;97987.94;;;16.72;64.01
27144;BME280;14672;50.250;8.312;2022-11-15T13:20:31;97988.19;;;16.69;64.17
27144;BME280;14672;50.250;8.312;2022-11-15T13:23:14;97984.78;;;16.54;64.61
27144;BME280;14672;50.250;8.312;2022-11-15T13:28:50;97979.09;;;16.59;65.06
27144;BME280;14672;50.250;8.312;2022-11-15T13:31:49;97975.41;;;16.48;65.23
27144;BME280;14672;50.250;8.312;2022-11-15T13:34:28;97974.13;;;16.60;65.04
27144;BME280;14672;50.250;8.312;2022-11-15T13:36:54;97977.22;;;16.56;64.85
27144;BME280;14672;50.250;8.312;2022-11-15T13:39:33;97968.91;;;16.47;65.19
27144;BME280;14672;50.250;8.312;2022-11-15T13:42:00;97969.13;;;16.32;65.26
27144;BME280;14672;50.250;8.312;2022-11-15T13:44:35;97960.28;;;16.47;65.28
27144;BME280;14672;50.250;8.312;2022-11-15T13:47:13;97949.84;;;16.38;65.01
27144;BME280;14672;50.250;8.312;2022-11-15T13:49:39;97957.69;;;16.38;65.09
27144;BME280;14672;50.250;8.312;2022-11-15T13:52:09;97950.66;;;16.39;64.96
27144;BME280;14672;50.250;8.312;2022-11-15T13:57:21;97948.03;;;16.30;65.26
27144;BME280;14672;50.250;8.312;2022-11-15T14:00:01;97949.06;;;16.27;64.85
27144;BME280;14672;50.250;8.312;2022-11-15T14:02:34;97942.28;;;16.30;65.20
27144;BME280;14672;50.250;8.312;2022-11-15T14:10:36;97931.06;;;16.10;65.78
27144;BME280;14672;50.250;8.312;2022-11-15T14:13:04;97929.00;;;16.10;65.67
27144;BME280;14672;50.250;8.312;2022-11-15T14:15:38;97921.44;;;16.07;65.93
27144;BME280;14672;50.250;8.312;2022-11-15T14:18:05;97914.13;;;16.01;65.90
27144;BME280;14672;50.250;8.312;2022-11-15T14:20:38;97909.94;;;15.79;66.61
27144;BME280;14672;50.250;8.312;2022-11-15T14:23:25;97908.91;;;15.82;66.89
27144;BME280;14672;50.250;8.312;2022-11-15T14:25:58;97899.81;;;15.84;66.38
27144;BME280;14672;50.250;8.312;2022-11-15T14:30:53;97896.66;;;15.82;66.39
27144;BME280;14672;50.250;8.312;2022-11-15T14:33:34;97880.53;;;15.79;66.72
27144;BME280;14672;50.250;8.312;2022-11-15T14:36:20;97886.25;;;15.79;66.62
27144;BME280;14672;50.250;8.312;2022-11-15T14:38:47;97890.13;;;15.70;66.95
27144;BME280;14672;50.250;8.312;2022-11-15T14:41:26;97879.22;;;15.74;66.61
27144;BME280;14672;50.250;8.312;2022-11-15T14:43:59;97877.41;;;15.71;66.51
27144;BME280;14672;50.250;8.312;2022-11-15T14:46:25;97872.72;;;15.68;66.44
27144;BME280;14672;50.250;8.312;2022-11-15T14:48:50;97869.28;;;15.59;67.33
27144;BME280;14672;50.250;8.312;2022-11-15T14:51:18;97853.13;;;15.50;67.34
27144;BME280;14672;50.250;8.312;2022-11-15T14:53:44;97854.22;;;15.64;66.88
27144;BME280;14672;50.250;8.312;2022-11-15T14:56:10;97847.16;;;15.65;66.74
27144;BME280;14672;50.250;8.312;2022-11-15T14:58:36;97837.81;;;15.64;66.42
27144;BME280;14672;50.250;8.312;2022-11-15T15:01:25;97844.03;;;15.57;67.15
27144;BME280;14672;50.250;8.312;2022-11-15T15:03:53;97846.91;;;15.57;66.81
27144;BME280;14672;50.250;8.312;2022-11-15T15:06:21;97836.97;;;15.47;67.38
27144;BME280;14672;50.250;8.312;2022-11-15T15:08:47;97843.78;;;15.55;66.74
27144;BME280;14672;50.250;8.312;2022-11-15T15:11:30;97840.63;;;15.47;67.33
27144;BME280;14672;50.250;8.312;2022-11-15T15:13:57;97840.41;;;15.51;67.03
27144;BME280;14672;50.250;8.312;2022-11-15T15:16:26;97827.66;;;15.52;67.21
27144;BME280;14672;50.250;8.312;2022-11-15T15:18:52;97821.34;;;15.42;67.67
27144;BME280;14672;50.250;8.312;2022-11-15T15:21:28;97820.56;;;15.42;67.21
27144;BME280;14672;50.250;8.312;2022-11-15T15:23:54;97820.31;;;15.45;67.60
27144;BME280;14672;50.250;8.312;2022-11-15T15:26:21;97805.22;;;15.45;67.22
27144;BME280;14672;50.250;8.312;2022-11-15T15:28:48;97807.28;;;15.39;67.23
27144;BME280;14672;50.250;8.312;2022-11-15T15:31:18;97800.81;;;15.44;67.08